EFKK/KOK METAR and TAF weather

Enter ICAO airport designator
Station Type Date Time Source
EFKK METAR 2020/07/07 09:20 UTC NOAA

EFKK 070920Z AUTO 22007KT 180V280 9999 VCSH FEW017 SCT032 //////CB 17/12 Q0995


Station Type Date Time Source
EFKK Decoded METAR 2020/07/07 09:20 UTC NOAA

Kruunupyy, Finland (EFKK) 63-43N 023-09E
Jul 07, 2020 - 05:20 AM EDT / 2020.07.07 0920 UTC
Wind: from the SW (220 degrees) at 8 MPH (7 KT) (direction variable):0
Visibility: greater than 7 mile(s):0
Sky conditions: partly cloudy
Weather: showers in the vicinity; Cumulonimbus clouds observed
Temperature: 62 F (17 C)
Dew Point: 53 F (12 C)
Relative Humidity: 72%
Pressure (altimeter): 29.38 in. Hg (0995 hPa)
ob: EFKK 070920Z AUTO 22007KT 180V280 9999 VCSH FEW017 SCT032 //////CB 17/12 Q0995
cycle: 9

Station Type Date Time Source
EFKK TAF 2019/04/22 21:42 UTC NOAA

TAF EFKK 222023Z 2221/2321 18006KT CAVOK

Example: see airport list